Time;durP1;ratioP1;P1;durP2;ratioP2;P2;SDS_P1;SDS_P2;PMS_P1;PMS_P2;Temp;Humidity;BMP_temperature;BMP_pressure;BME280_temperature;BME280_humidity;BME280_pressure;Samples;Min_cycle;Max_cycle;Signal;HPM_P1;HPM_P2
2022/11/29 00:00:22;;;;;;;2.90;2.70;;;;;;;9.43;65.15;94803.66;4953255;29;20280;-84
2022/11/29 00:02:52;;;;;;;2.63;2.43;;;;;;;9.32;65.23;94784.09;4952729;29;20182;-84
2022/11/29 00:05:19;;;;;;;3.37;3.07;;;;;;;9.41;65.08;94800.41;4935939;29;20234;-85
2022/11/29 00:07:46;;;;;;;2.97;2.77;;;;;;;9.43;65.25;94801.91;4944634;29;20199;-85
2022/11/29 00:10:13;;;;;;;3.30;3.00;;;;;;;9.44;65.11;94802.72;4948059;29;20206;-86
2022/11/29 00:12:39;;;;;;;2.87;2.60;;;;;;;9.44;64.94;94808.63;4943640;29;20191;-80
2022/11/29 00:15:07;;;;;;;2.77;2.57;;;;;;;9.38;65.09;94796.38;4949603;29;20198;-84
2022/11/29 00:17:34;;;;;;;3.20;2.60;;;;;;;9.43;65.11;94811.31;4956944;28;20221;-80
2022/11/29 00:20:02;;;;;;;3.57;2.40;;;;;;;9.44;64.96;94810.38;4956100;28;20198;-85
2022/11/29 00:22:29;;;;;;;2.53;2.33;;;;;;;9.43;65.09;94811.31;4952636;29;20277;-86
2022/11/29 00:24:55;;;;;;;2.60;2.40;;;;;;;9.28;64.98;94788.69;4952456;28;20199;-83
2022/11/29 00:27:23;;;;;;;2.90;2.70;;;;;;;9.39;65.04;94800.53;4953028;29;20183;-87
2022/11/29 00:29:49;;;;;;;2.40;2.20;;;;;;;9.37;64.80;94799.88;4952975;29;20190;-86
2022/11/29 00:32:16;;;;;;;3.07;2.40;;;;;;;9.43;65.00;94806.19;4955011;29;20194;-86
2022/11/29 00:34:43;;;;;;;3.17;2.73;;;;;;;9.41;65.02;94811.44;4960758;29;20190;-85
2022/11/29 00:37:11;;;;;;;3.13;2.77;;;;;;;9.41;64.97;94811.44;4958667;29;20277;-83
2022/11/29 00:39:39;;;;;;;2.60;2.40;;;;;;;9.37;65.13;94801.59;4953329;29;20241;-84
2022/11/29 00:42:06;;;;;;;2.73;2.53;;;;;;;9.40;64.87;94822.56;4953146;29;20194;-81
2022/11/29 00:44:33;;;;;;;2.50;2.30;;;;;;;9.33;65.02;94801.06;4951869;29;20737;-83
2022/11/29 00:47:00;;;;;;;3.20;2.33;;;;;;;9.42;64.98;94815.59;4951905;29;20233;-84
2022/11/29 00:49:27;;;;;;;3.13;2.87;;;;;;;9.40;64.81;94817.47;4951563;29;20697;-82
2022/11/29 00:51:54;;;;;;;2.77;2.50;;;;;;;9.43;64.84;94814.66;4951690;29;20259;-82
2022/11/29 00:54:22;;;;;;;2.80;2.60;;;;;;;9.43;64.90;94819.78;4951745;29;20210;-84
2022/11/29 00:56:49;;;;;;;2.80;2.43;;;;;;;9.43;64.92;94817.22;4953663;28;20195;-81
2022/11/29 00:59:16;;;;;;;2.97;2.50;;;;;;;9.43;64.86;94812.13;4955958;28;20194;-84
2022/11/29 01:01:42;;;;;;;2.50;2.30;;;;;;;9.30;64.86;94791.09;4958283;28;20209;-83
2022/11/29 01:04:09;;;;;;;2.90;2.60;;;;;;;9.42;64.81;94810.50;4956489;28;20198;-85
2022/11/29 01:06:36;;;;;;;2.70;2.40;;;;;;;9.25;64.79;94788.94;4956188;29;20222;-83
2022/11/29 01:09:04;;;;;;;2.70;2.50;;;;;;;9.43;64.78;94804.47;4955662;28;20200;-85
2022/11/29 01:11:32;;;;;;;2.20;2.10;;;;;;;9.42;64.70;94805.41;4954826;29;20211;-82
2022/11/29 01:14:01;;;;;;;2.30;2.20;;;;;;;9.42;64.71;94805.41;4954876;29;20194;-84
2022/11/29 01:16:30;;;;;;;2.70;2.50;;;;;;;9.42;64.77;94804.59;4955099;29;20689;-83
2022/11/29 01:18:57;;;;;;;3.03;2.60;;;;;;;9.35;64.87;94788.97;4955060;29;20233;-87
2022/11/29 01:21:24;;;;;;;2.70;2.50;;;;;;;9.22;64.82;94762.84;4955348;29;20566;-86
2022/11/29 01:23:52;;;;;;;2.50;2.30;;;;;;;9.40;64.73;94793.69;4956521;29;20194;-85
2022/11/29 01:26:22;;;;;;;2.50;2.30;;;;;;;9.39;64.71;94795.44;4960252;29;20211;-84
2022/11/29 01:28:52;;;;;;;2.20;2.10;;;;;;;9.38;64.78;94788.72;4956108;29;20186;-84
2022/11/29 01:31:20;;;;;;;2.50;2.30;;;;;;;9.34;64.65;94787.34;4955172;29;20195;-85
2022/11/29 01:33:47;;;;;;;2.33;2.13;;;;;;;9.38;64.70;94785.38;4966971;29;20170;-85
2022/11/29 01:36:14;;;;;;;2.70;2.50;;;;;;;9.25;64.81;94765.97;4977325;28;20182;-85
2022/11/29 01:38:42;;;;;;;2.47;2.27;;;;;;;9.31;64.53;94779.94;4980490;28;20196;-83
2022/11/29 01:41:12;;;;;;;2.13;1.97;;;;;;;9.23;64.55;94767.81;4979962;28;20222;-83
2022/11/29 01:43:57;;;;;;;2.57;2.30;;;;;;;9.36;64.81;94782.91;4971666;29;20182;-82
2022/11/29 01:46:25;;;;;;;2.70;2.50;;;;;;;9.35;64.65;94778.75;4971068;29;20230;-81
2022/11/29 01:48:55;;;;;;;2.57;2.37;;;;;;;9.35;64.59;94777.97;4974666;29;20198;-82
2022/11/29 01:51:22;;;;;;;2.37;2.17;;;;;;;9.32;64.65;94771.34;4967353;29;20201;-85
2022/11/29 01:53:49;;;;;;;2.50;2.33;;;;;;;9.32;64.69;94766.25;4955962;29;20205;-87
2022/11/29 01:56:16;;;;;;;2.60;2.40;;;;;;;9.31;64.51;94759.53;4955872;29;20190;-86
2022/11/29 01:58:44;;;;;;;2.67;2.47;;;;;;;9.32;64.70;94768.00;4954987;29;20197;-85
2022/11/29 02:01:14;;;;;;;3.20;2.53;;;;;;;9.29;64.69;94766.53;4955872;29;20190;-84
2022/11/29 02:03:41;;;;;;;2.90;2.63;;;;;;;9.29;64.67;94759.66;4955280;29;20655;-82
2022/11/29 02:06:08;;;;;;;2.60;2.40;;;;;;;9.30;64.73;94763.03;4956896;29;20233;-83
2022/11/29 02:12:16;;;;;;;2.60;2.30;;;;;;;9.27;64.82;94763.28;4959811;29;20584;-82
2022/11/29 02:15:04;;;;;;;3.10;2.80;;;;;;;9.17;64.73;94754.78;4975554;29;20204;-81
2022/11/29 02:17:42;;;;;;;2.43;2.23;;;;;;;8.93;64.85;94714.25;4972185;28;20304;-86
2022/11/29 02:20:32;;;;;;;3.00;2.43;;;;;;;9.21;64.66;94762.06;4966323;28;20186;-82
2022/11/29 02:23:16;;;;;;;4.30;2.83;;;;;;;9.20;64.70;94757.09;4978792;29;20174;-82
2022/11/29 02:26:02;;;;;;;2.70;2.50;;;;;;;9.14;64.78;94753.28;4968360;28;20226;-85
2022/11/29 02:29:02;;;;;;;2.93;2.63;;;;;;;9.13;64.94;94753.41;4954434;28;20690;-85
2022/11/29 02:31:56;;;;;;;5.13;2.53;;;;;;;9.15;64.98;94764.28;4954011;29;20205;-85
2022/11/29 02:34:52;;;;;;;2.87;2.57;;;;;;;9.13;64.94;94754.22;4955115;29;20203;-83
2022/11/29 02:37:43;;;;;;;2.43;2.17;;;;;;;9.13;64.70;94766.19;4955772;29;20190;-85
2022/11/29 02:40:29;;;;;;;2.60;2.30;;;;;;;9.13;64.64;94768.72;4964586;29;20194;-83
2022/11/29 02:43:26;;;;;;;2.80;2.57;;;;;;;9.11;64.73;94771.41;4956800;29;20209;-84
2022/11/29 02:46:08;;;;;;;3.33;2.50;;;;;;;9.14;64.77;94763.47;4955296;28;20226;-86
2022/11/29 02:48:55;;;;;;;2.63;2.43;;;;;;;9.15;64.71;94771.94;4953416;29;20197;-85
2022/11/29 02:51:31;;;;;;;2.53;2.33;;;;;;;9.16;64.70;94761.63;4953687;29;20187;-84
2022/11/29 02:54:06;;;;;;;2.63;2.43;;;;;;;9.05;64.74;94747.19;4953369;28;20190;-87
2022/11/29 02:56:41;;;;;;;2.80;2.60;;;;;;;9.17;64.71;94768.34;4953341;29;20632;-84
2022/11/29 02:59:15;;;;;;;2.53;2.33;;;;;;;9.18;64.77;94769.94;4953610;29;20190;-85
2022/11/29 03:01:51;;;;;;;2.87;2.57;;;;;;;9.06;64.52;94748.00;4953170;29;20193;-84
2022/11/29 03:04:25;;;;;;;2.60;2.40;;;;;;;9.05;64.50;94742.09;4953713;29;20198;-87
2022/11/29 03:07:03;;;;;;;3.40;2.80;;;;;;;9.20;64.66;94767.28;4952950;29;20225;-84
2022/11/29 03:09:38;;;;;;;3.57;2.67;;;;;;;9.20;64.56;94773.19;4953401;29;20230;-83
2022/11/29 03:12:18;;;;;;;4.27;2.80;;;;;;;9.21;64.60;94768.91;4953367;29;20201;-82
2022/11/29 03:14:56;;;;;;;3.07;2.77;;;;;;;9.20;64.67;94780.84;4952843;29;20581;-82
2022/11/29 03:17:31;;;;;;;2.70;2.50;;;;;;;9.21;64.67;94781.66;4952907;29;20792;-85
2022/11/29 03:20:11;;;;;;;2.50;2.30;;;;;;;9.20;64.68;94778.31;4952698;28;20189;-84
2022/11/29 03:22:47;;;;;;;2.93;2.30;;;;;;;9.20;64.74;94775.75;4933849;29;20210;-85
2022/11/29 03:25:23;;;;;;;2.60;2.40;;;;;;;9.17;64.53;94776.00;4933388;29;20556;-84
2022/11/29 03:27:56;;;;;;;2.73;2.40;;;;;;;9.18;64.60;94787.81;4933654;29;20226;-86
2022/11/29 03:30:23;;;;;;;2.60;2.40;;;;;;;9.21;64.60;94787.56;4933599;29;20199;-84
2022/11/29 03:33:01;;;;;;;2.80;2.57;;;;;;;9.21;64.75;94790.13;4955318;29;20187;-83
2022/11/29 03:35:36;;;;;;;3.07;2.60;;;;;;;9.22;64.42;94794.28;4968133;29;20182;-85
2022/11/29 03:38:11;;;;;;;2.77;2.43;;;;;;;9.23;64.55;94792.53;4959283;29;20209;-84
2022/11/29 03:40:45;;;;;;;2.70;2.50;;;;;;;9.23;64.56;94789.97;4953674;29;20182;-81
2022/11/29 03:43:18;;;;;;;2.47;2.27;;;;;;;9.23;64.60;94793.34;4952757;28;20193;-82
2022/11/29 03:45:51;;;;;;;3.13;2.63;;;;;;;9.20;64.49;94788.50;4952958;29;20193;-85
2022/11/29 03:48:24;;;;;;;3.50;2.60;;;;;;;9.22;64.71;94788.38;4953342;29;20182;-85
2022/11/29 03:50:56;;;;;;;2.83;2.53;;;;;;;9.24;64.52;94791.59;4952655;29;20249;-84
2022/11/29 03:53:33;;;;;;;3.07;2.63;;;;;;;9.21;64.53;94772.25;4952845;29;20198;-81
2022/11/29 03:56:02;;;;;;;2.50;2.30;;;;;;;9.21;64.65;94771.44;4952412;28;20198;-84
2022/11/29 03:58:53;;;;;;;2.57;2.37;;;;;;;9.22;64.73;94775.63;4952727;29;20201;-82
2022/11/29 04:01:45;;;;;;;2.60;2.40;;;;;;;9.31;64.76;94790.16;4952587;29;20205;-81
2022/11/29 04:04:35;;;;;;;2.70;2.50;;;;;;;9.32;64.73;94785.84;4952567;29;20199;-83
2022/11/29 04:07:13;;;;;;;2.63;2.43;;;;;;;9.32;64.62;94786.66;4952033;29;20211;-84
2022/11/29 04:09:59;;;;;;;2.87;2.60;;;;;;;9.33;64.62;94788.31;4952238;28;20662;-82
2022/11/29 04:13:00;;;;;;;2.43;2.23;;;;;;;9.24;64.47;94773.72;4952787;29;20186;-83
2022/11/29 04:16:08;;;;;;;2.60;2.40;;;;;;;9.34;64.82;94791.66;4952510;29;20204;-85
2022/11/29 04:19:00;;;;;;;2.70;2.50;;;;;;;9.26;64.59;94777.78;4856004;29;20233;-84
2022/11/29 04:22:14;;;;;;;3.23;2.93;;;;;;;9.34;64.76;94795.00;4856183;29;20197;-86
2022/11/29 04:25:26;;;;;;;2.60;2.40;;;;;;;9.30;64.70;94797.00;4820043;29;20203;-81
2022/11/29 04:28:09;;;;;;;2.57;2.37;;;;;;;9.33;65.02;94807.91;4810714;29;20242;-85
2022/11/29 04:30:46;;;;;;;2.47;2.27;;;;;;;9.33;64.84;94798.50;4816513;29;20198;-84
2022/11/29 04:33:58;;;;;;;2.50;2.30;;;;;;;9.34;64.79;94806.97;4823761;29;20199;-85
2022/11/29 04:37:12;;;;;;;4.00;2.27;;;;;;;9.31;64.86;94795.25;4751342;30;20224;-85
2022/11/29 04:39:50;;;;;;;2.47;2.30;;;;;;;9.32;64.80;94801.16;4751134;30;20205;-85
2022/11/29 04:42:51;;;;;;;2.77;2.50;;;;;;;9.31;64.63;94795.25;4750713;30;20213;-84
2022/11/29 04:45:39;;;;;;;2.37;2.20;;;;;;;9.29;64.90;94792.03;4739230;30;20213;-83
2022/11/29 04:48:25;;;;;;;2.53;2.33;;;;;;;9.12;64.87;94772.22;4727782;30;20233;-81
2022/11/29 04:51:03;;;;;;;2.50;2.10;;;;;;;9.23;64.63;94785.69;4739690;30;20198;-80
2022/11/29 04:53:45;;;;;;;3.57;2.70;;;;;;;9.17;64.79;94770.91;4750129;30;20210;-84
2022/11/29 04:56:21;;;;;;;2.93;2.60;;;;;;;9.26;64.91;94782.09;4813188;29;20203;-85
2022/11/29 04:58:58;;;;;;;2.60;2.40;;;;;;;9.30;64.58;94786.81;4823874;29;20209;-85
2022/11/29 05:01:36;;;;;;;4.60;2.40;;;;;;;9.30;64.85;94789.34;4851497;29;20588;-85
2022/11/29 05:04:12;;;;;;;2.43;2.23;;;;;;;9.30;64.72;94784.25;4860661;29;20197;-82
2022/11/29 05:06:45;;;;;;;4.40;2.30;;;;;;;9.31;64.81;94779.94;4859495;29;20233;-83
2022/11/29 05:09:25;;;;;;;3.00;2.70;;;;;;;9.18;64.69;94764.03;4861621;29;20198;-84
2022/11/29 05:12:04;;;;;;;2.60;2.23;;;;;;;9.32;64.70;94784.09;4918533;29;20201;-84
2022/11/29 05:14:50;;;;;;;2.27;2.10;;;;;;;9.27;64.75;94771.72;4955569;29;20272;-80
2022/11/29 05:17:29;;;;;;;2.73;2.23;;;;;;;9.32;64.79;94789.22;4939195;29;20221;-84
2022/11/29 05:20:09;;;;;;;2.63;2.43;;;;;;;9.23;64.68;94774.66;4955062;29;20200;-84
2022/11/29 05:22:44;;;;;;;2.43;2.20;;;;;;;9.23;64.71;94774.66;4952989;29;20202;-86
2022/11/29 05:25:30;;;;;;;2.47;2.27;;;;;;;9.27;64.71;94783.69;4954095;28;20192;-84
2022/11/29 05:28:03;;;;;;;2.10;2.00;;;;;;;9.29;64.73;94785.19;4953169;29;20214;-85
2022/11/29 05:30:49;;;;;;;2.80;2.60;;;;;;;9.30;64.75;94784.25;4954425;29;20973;-82
2022/11/29 05:33:27;;;;;;;4.20;2.57;;;;;;;9.30;64.77;94791.09;4950057;29;20183;-82
2022/11/29 05:36:00;;;;;;;2.90;2.70;;;;;;;9.27;64.75;94783.69;4960701;29;20186;-82
2022/11/29 05:38:43;;;;;;;2.60;2.40;;;;;;;9.23;64.76;94770.38;4962421;29;20198;-81
2022/11/29 05:41:32;;;;;;;2.90;2.60;;;;;;;9.25;64.79;94777.91;4943842;29;20211;-89
2022/11/29 05:44:09;;;;;;;3.13;2.83;;;;;;;9.32;64.73;94793.50;4955366;29;20224;-88
2022/11/29 05:46:48;;;;;;;2.80;2.60;;;;;;;9.26;64.83;94784.63;4953332;29;20229;-84
2022/11/29 05:49:24;;;;;;;2.90;2.67;;;;;;;9.30;64.64;94793.66;4952365;29;20204;-85
2022/11/29 05:52:04;;;;;;;4.53;2.93;;;;;;;9.30;64.72;94794.47;4952791;29;20209;-80
2022/11/29 05:54:34;;;;;;;2.77;2.57;;;;;;;9.22;64.97;94778.16;4952659;29;20208;-82
2022/11/29 05:57:13;;;;;;;2.40;2.20;;;;;;;9.32;64.81;94789.22;4952720;29;20209;-86
2022/11/29 05:59:43;;;;;;;3.17;2.63;;;;;;;9.34;64.63;94792.47;4952605;28;20220;-85
2022/11/29 06:02:28;;;;;;;3.40;2.70;;;;;;;9.35;64.80;94793.28;4953458;29;20191;-82
2022/11/29 06:05:12;;;;;;;2.73;2.53;;;;;;;9.35;64.66;94795.81;4953208;29;20718;-86
2022/11/29 06:07:47;;;;;;;3.10;2.83;;;;;;;9.35;64.62;94788.97;4952659;29;20221;-82
2022/11/29 06:10:16;;;;;;;3.10;2.80;;;;;;;8.98;64.61;94727.41;4951764;29;20208;-86
2022/11/29 06:12:48;;;;;;;3.00;2.77;;;;;;;9.39;64.61;94786.97;4952902;29;20203;-82
2022/11/29 06:16:04;;;;;;;4.73;3.30;;;;;;;9.41;64.53;94791.03;4955273;29;20271;-82
2022/11/29 06:18:57;;;;;;;4.23;2.60;;;;;;;9.44;64.45;94790.75;4895890;29;20236;-81
2022/11/29 06:21:36;;;;;;;3.47;2.70;;;;;;;9.46;64.58;94785.53;4894835;29;20633;-80
2022/11/29 06:24:29;;;;;;;6.20;2.20;;;;;;;9.75;96.24;94773.66;4896656;29;20663;-91
2022/11/29 06:27:25;;;;;;;4.87;2.43;;;;;;;10.62;100.00;94775.53;4892235;29;20738;-88
2022/11/29 06:29:57;;;;;;;4.17;2.30;;;;;;;11.48;100.00;94778.81;4891867;29;20232;-88
2022/11/29 06:32:34;;;;;;;2.00;1.87;;;;;;;12.26;100.00;94776.69;4890880;29;20696;-83
2022/11/29 06:35:08;;;;;;;4.60;2.37;;;;;;;12.96;99.49;94778.53;4892968;29;20683;-90
2022/11/29 06:37:39;;;;;;;2.23;2.03;;;;;;;13.55;95.10;94784.66;4891780;29;20589;-83
2022/11/29 06:40:09;;;;;;;2.47;2.20;;;;;;;14.05;91.71;94795.00;4892932;29;20209;-80
2022/11/29 06:42:36;;;;;;;2.33;2.00;;;;;;;14.30;89.80;94783.00;4903848;29;20200;-87
2022/11/29 06:45:04;;;;;;;2.97;1.90;;;;;;;14.39;87.57;94794.09;4899747;29;20228;-86
2022/11/29 06:47:40;;;;;;;2.50;2.30;;;;;;;14.23;84.26;94782.00;4902252;29;20239;-91
2022/11/29 06:50:24;;;;;;;2.40;2.20;;;;;;;14.13;82.06;94796.78;4908765;29;20200;-90
2022/11/29 06:53:01;;;;;;;4.60;2.27;;;;;;;13.95;80.24;94801.25;4919197;28;20199;-86
2022/11/29 06:55:36;;;;;;;4.63;2.40;;;;;;;13.75;78.76;94801.47;4972267;28;20198;-92
2022/11/29 06:58:13;;;;;;;2.50;2.30;;;;;;;13.45;77.84;94779.66;4971610;28;20198;-85
2022/11/29 07:00:49;;;;;;;3.07;2.50;;;;;;;13.40;77.06;94804.19;4962472;28;20584;-87
2022/11/29 07:03:32;;;;;;;3.03;2.30;;;;;;;13.25;76.41;94803.91;4956163;28;20215;-88
2022/11/29 07:06:16;;;;;;;2.87;2.67;;;;;;;13.18;76.12;94810.59;4958543;28;20194;-89
2022/11/29 07:08:43;;;;;;;3.13;2.70;;;;;;;12.85;75.97;94783.91;4962110;28;20226;-90
2022/11/29 07:11:13;;;;;;;3.10;2.80;;;;;;;12.93;75.56;94814.75;4972533;28;20204;-90
2022/11/29 07:13:42;;;;;;;4.00;2.63;;;;;;;12.81;75.14;94812.41;4959555;28;20363;-85
2022/11/29 07:16:17;;;;;;;3.83;2.90;;;;;;;12.34;74.70;94757.16;4966681;28;20206;-88
2022/11/29 07:18:53;;;;;;;4.23;2.70;;;;;;;12.58;74.52;94805.34;4969189;28;20244;-86
2022/11/29 07:21:35;;;;;;;3.50;3.00;;;;;;;12.51;73.95;94821.28;4956859;28;20201;-86
2022/11/29 07:24:08;;;;;;;3.10;2.80;;;;;;;12.28;73.79;94799.59;4957159;28;20657;-87
2022/11/29 07:26:40;;;;;;;3.30;2.73;;;;;;;12.33;73.49;94819.69;4962324;28;20202;-89
2022/11/29 07:29:23;;;;;;;3.93;2.97;;;;;;;12.29;73.04;94835.34;4968745;28;20202;-88
2022/11/29 07:32:03;;;;;;;3.43;3.13;;;;;;;12.22;72.41;94829.19;4981731;28;20202;-89
2022/11/29 07:34:48;;;;;;;3.73;3.00;;;;;;;12.17;72.14;94825.44;4975810;28;20200;-89
2022/11/29 07:37:22;;;;;;;3.77;3.30;;;;;;;11.91;71.72;94790.22;4961225;28;20281;-90
2022/11/29 07:39:58;;;;;;;5.60;3.20;;;;;;;12.10;71.27;94824.41;4961852;28;20279;-89
2022/11/29 07:42:31;;;;;;;5.00;3.03;;;;;;;11.94;70.96;94794.28;4970340;28;20340;-90
2022/11/29 07:45:11;;;;;;;4.53;3.20;;;;;;;12.09;70.87;94815.09;4969335;28;20196;-84
2022/11/29 07:47:38;;;;;;;3.73;3.30;;;;;;;12.05;70.60;94815.41;4952175;28;20273;-87
2022/11/29 07:50:05;;;;;;;4.03;3.37;;;;;;;12.07;70.25;94815.25;4961042;28;20190;-86
2022/11/29 07:52:34;;;;;;;4.30;2.60;;;;;;;12.09;69.86;94815.91;4961777;28;20194;-88
2022/11/29 07:55:02;;;;;;;4.27;3.40;;;;;;;12.10;69.65;94811.59;4956242;28;20693;-86
2022/11/29 07:57:29;;;;;;;3.63;3.27;;;;;;;12.03;69.52;94811.34;4959770;28;20206;-88
2022/11/29 07:59:55;;;;;;;3.43;3.07;;;;;;;12.13;69.34;94816.41;4963825;28;20190;-87
2022/11/29 08:02:29;;;;;;;3.50;2.70;;;;;;;12.14;68.89;94820.63;4959544;28;20579;-87
2022/11/29 08:04:56;;;;;;;3.23;2.80;;;;;;;12.14;68.64;94823.97;4965708;28;20233;-86
2022/11/29 08:07:23;;;;;;;4.07;3.03;;;;;;;12.09;68.36;94809.97;4963867;28;20236;-85
2022/11/29 08:09:52;;;;;;;3.90;2.90;;;;;;;12.15;68.04;94827.34;4969674;28;20186;-91
2022/11/29 08:12:18;;;;;;;7.77;3.53;;;;;;;12.15;67.76;94822.22;4970236;28;20220;-88
2022/11/29 08:14:45;;;;;;;3.13;2.53;;;;;;;12.11;67.43;94820.91;4959147;28;20190;-92
2022/11/29 08:17:12;;;;;;;3.93;2.80;;;;;;;12.12;67.37;94827.63;4967494;28;20209;-86
2022/11/29 08:19:39;;;;;;;5.33;2.73;;;;;;;12.12;67.17;94825.06;4953348;28;20187;-91
2022/11/29 08:22:06;;;;;;;3.03;2.60;;;;;;;12.06;67.06;94811.06;4963386;28;20190;-86
2022/11/29 08:24:35;;;;;;;3.10;2.40;;;;;;;12.11;66.92;94826.81;4961628;28;20194;-88
2022/11/29 08:27:03;;;;;;;3.30;2.70;;;;;;;11.88;66.66;94787.16;4960453;28;20206;-92
2022/11/29 08:29:30;;;;;;;3.00;2.70;;;;;;;12.07;66.58;94822.13;4961852;28;20281;-83
2022/11/29 08:31:57;;;;;;;3.27;2.50;;;;;;;12.08;66.17;94827.09;4961343;28;20191;-82
2022/11/29 08:34:24;;;;;;;3.33;2.87;;;;;;;12.11;66.02;94828.59;4957494;28;20633;-90
2022/11/29 08:36:55;;;;;;;5.67;2.80;;;;;;;11.91;65.87;94797.91;4962651;28;20206;-89
2022/11/29 08:39:21;;;;;;;2.70;2.50;;;;;;;12.11;65.77;94826.03;4964841;28;20210;-84
2022/11/29 08:41:53;;;;;;;2.90;2.60;;;;;;;12.19;65.73;94836.38;4975683;28;20187;-82
2022/11/29 08:44:22;;;;;;;2.43;2.23;;;;;;;12.22;65.57;94839.47;4966203;28;20210;-85
2022/11/29 08:49:59;;;;;;;3.60;2.60;;;;;;;12.22;65.32;94834.34;4968354;28;20256;-82
2022/11/29 08:55:06;;;;;;;3.30;2.50;;;;;;;12.29;64.85;94842.25;4964352;28;20212;-86
2022/11/29 08:57:34;;;;;;;2.77;2.50;;;;;;;12.32;64.82;94838.59;4967044;28;20202;-88
2022/11/29 09:00:04;;;;;;;2.70;2.50;;;;;;;12.34;64.81;94836.66;4965453;28;20205;-84
2022/11/29 09:02:30;;;;;;;2.93;2.40;;;;;;;12.36;64.55;94827.09;4954542;28;20210;-87
2022/11/29 09:05:00;;;;;;;4.17;2.67;;;;;;;12.37;64.67;94826.94;4956221;28;20187;-82
2022/11/29 09:07:27;;;;;;;2.90;2.60;;;;;;;11.91;64.50;94763.81;4960473;28;20258;-81
2022/11/29 09:09:54;;;;;;;2.57;2.37;;;;;;;12.34;64.50;94834.91;4956531;28;20195;-84
2022/11/29 09:12:20;;;;;;;3.03;2.53;;;;;;;12.34;64.20;94827.22;4959247;28;20589;-85
2022/11/29 09:14:47;;;;;;;4.13;3.00;;;;;;;12.33;64.08;94819.69;4953669;28;20209;-86
2022/11/29 09:17:15;;;;;;;3.17;2.87;;;;;;;12.27;64.27;94816.75;4961083;28;20268;-86
2022/11/29 09:19:42;;;;;;;3.33;2.57;;;;;;;12.30;64.14;94825.88;4962244;28;20214;-90
2022/11/29 09:22:09;;;;;;;4.57;2.67;;;;;;;12.18;64.21;94804.78;4956689;28;20206;-88
2022/11/29 09:24:36;;;;;;;3.43;2.53;;;;;;;12.30;63.89;94820.75;4961694;28;20202;-88
2022/11/29 09:27:05;;;;;;;2.60;2.40;;;;;;;12.29;63.93;94822.53;4958435;28;20190;-88
2022/11/29 09:29:32;;;;;;;2.90;2.70;;;;;;;12.26;63.99;94814.31;4969802;28;20261;-82
2022/11/29 09:31:59;;;;;;;3.30;3.00;;;;;;;12.28;63.90;94813.22;4975909;28;20206;-87
2022/11/29 09:34:27;;;;;;;3.33;2.90;;;;;;;12.19;63.84;94800.47;4982529;28;20190;-79
2022/11/29 09:36:54;;;;;;;2.87;2.53;;;;;;;12.29;63.82;94814.81;4954869;28;20257;-83
2022/11/29 09:39:21;;;;;;;4.80;2.90;;;;;;;12.30;63.56;94805.38;4958058;28;20658;-80
2022/11/29 09:42:08;;;;;;;2.67;2.47;;;;;;;12.31;63.67;94799.31;4960935;28;20198;-84
2022/11/29 09:44:48;;;;;;;4.80;2.80;;;;;;;12.33;63.47;94794.03;4960258;28;20206;-80
2022/11/29 09:47:30;;;;;;;3.07;2.73;;;;;;;12.30;63.39;94784.88;4960979;28;20276;-82
2022/11/29 09:50:11;;;;;;;3.53;2.80;;;;;;;12.31;63.39;94786.50;4964606;28;20661;-82
2022/11/29 09:52:47;;;;;;;3.40;3.10;;;;;;;12.30;63.55;94788.25;4954973;28;20198;-83
2022/11/29 09:55:39;;;;;;;4.10;2.93;;;;;;;12.24;63.53;94773.44;4964895;28;20194;-80
2022/11/29 09:58:13;;;;;;;7.03;2.93;;;;;;;12.29;63.25;94781.50;4957139;28;20202;-82
2022/11/29 10:00:47;;;;;;;3.27;2.97;;;;;;;12.30;63.28;94780.56;4954079;28;20187;-81
2022/11/29 10:03:22;;;;;;;3.40;2.93;;;;;;;12.30;63.16;94772.88;4967528;28;20197;-80
2022/11/29 10:05:56;;;;;;;4.43;3.13;;;;;;;12.34;63.04;94772.56;4971896;28;20190;-80
2022/11/29 10:08:28;;;;;;;3.57;2.73;;;;;;;12.37;62.92;94769.72;4977651;28;20226;-85
2022/11/29 10:11:05;;;;;;;4.57;3.73;;;;;;;12.39;63.18;94766.06;4974404;28;20249;-83
2022/11/29 10:13:36;;;;;;;5.63;3.17;;;;;;;12.35;62.88;94759.63;4958543;28;20206;-91
2022/11/29 10:16:11;;;;;;;4.20;3.33;;;;;;;12.46;62.84;94763.69;4971150;28;20252;-86
2022/11/29 10:18:46;;;;;;;4.10;3.07;;;;;;;12.49;62.71;94758.28;4969111;28;20293;-92
2022/11/29 10:21:21;;;;;;;6.37;3.37;;;;;;;12.50;62.73;94762.44;4972879;28;20253;-88
2022/11/29 10:23:52;;;;;;;3.63;2.97;;;;;;;12.53;62.63;94764.72;4973028;28;20224;-84
2022/11/29 10:26:19;;;;;;;5.20;2.83;;;;;;;12.38;62.58;94727.72;4970650;28;20201;-82
2022/11/29 10:28:48;;;;;;;3.83;3.00;;;;;;;12.60;62.40;94752.09;4968507;28;20218;-81
2022/11/29 10:31:21;;;;;;;5.17;3.33;;;;;;;12.65;62.38;94755.84;4971908;28;20194;-83
2022/11/29 10:33:49;;;;;;;4.13;3.50;;;;;;;12.67;62.48;94753.94;4969395;28;20853;-81
2022/11/29 10:36:25;;;;;;;6.30;3.50;;;;;;;12.52;62.21;94717.75;4974973;28;20286;-82
2022/11/29 10:38:57;;;;;;;3.80;3.50;;;;;;;12.76;62.27;94744.53;4967018;28;20252;-86
2022/11/29 10:41:25;;;;;;;3.53;3.20;;;;;;;12.79;61.96;94747.63;4956366;28;20183;-82
2022/11/29 10:43:55;;;;;;;3.63;3.23;;;;;;;12.86;61.95;94747.00;4961304;28;20379;-81
2022/11/29 10:46:28;;;;;;;3.43;3.13;;;;;;;12.60;61.90;94701.59;4958312;28;20662;-84
2022/11/29 10:48:57;;;;;;;3.40;3.10;;;;;;;12.96;61.89;94747.72;4972610;28;20233;-82
2022/11/29 10:51:25;;;;;;;3.50;2.87;;;;;;;12.99;61.89;94740.50;4964496;28;20190;-82
2022/11/29 10:53:54;;;;;;;5.47;3.60;;;;;;;13.04;61.67;94743.44;4962762;28;20205;-85
2022/11/29 10:56:26;;;;;;;4.97;3.00;;;;;;;13.10;61.72;94736.91;4965954;28;20228;-82
2022/11/29 10:59:01;;;;;;;4.07;3.10;;;;;;;13.16;61.51;94741.41;4967864;28;20213;-85
2022/11/29 11:01:29;;;;;;;5.00;3.30;;;;;;;13.18;61.49;94731.00;4964847;28;20203;-82
2022/11/29 11:03:58;;;;;;;5.70;3.33;;;;;;;13.22;61.40;94738.28;4953789;28;20198;-84
2022/11/29 11:06:28;;;;;;;4.20;3.20;;;;;;;13.27;61.54;94733.50;4953406;28;20224;-86
2022/11/29 11:09:11;;;;;;;5.47;3.20;;;;;;;13.35;61.38;94740.44;4963821;28;20303;-82
2022/11/29 11:11:39;;;;;;;4.00;3.30;;;;;;;13.36;61.40;94739.47;4964868;28;20202;-83
2022/11/29 11:14:19;;;;;;;3.43;3.13;;;;;;;13.41;61.43;94746.72;4959726;28;20274;-85
2022/11/29 11:16:46;;;;;;;5.33;3.60;;;;;;;13.33;61.45;94733.81;4958443;28;20198;-84
2022/11/29 11:19:30;;;;;;;3.03;2.80;;;;;;;13.43;61.26;94753.31;4962962;28;20222;-85
2022/11/29 11:22:00;;;;;;;3.23;2.90;;;;;;;13.41;61.34;94751.84;4963279;28;20216;-85
2022/11/29 11:24:30;;;;;;;3.03;2.80;;;;;;;13.23;61.61;94726.25;4964002;28;20444;-83
2022/11/29 11:26:57;;;;;;;3.27;2.83;;;;;;;13.34;61.57;94748.28;4968955;28;20654;-88
2022/11/29 11:29:26;;;;;;;3.93;2.97;;;;;;;13.36;61.59;94769.50;4972252;28;20233;-89
2022/11/29 11:31:56;;;;;;;3.20;2.90;;;;;;;13.33;61.71;94762.88;4976578;28;20555;-82
2022/11/29 11:34:30;;;;;;;5.03;3.03;;;;;;;13.21;61.67;94754.63;4968082;28;20224;-84
2022/11/29 11:37:23;;;;;;;4.20;2.97;;;;;;;13.23;61.69;94757.88;4959868;28;20195;-81
2022/11/29 11:39:52;;;;;;;5.23;2.93;;;;;;;13.08;61.87;94749.06;4965358;28;20209;-82
2022/11/29 11:42:37;;;;;;;3.73;3.37;;;;;;;13.13;61.91;94766.59;4969599;28;20213;-83
2022/11/29 11:45:21;;;;;;;5.00;2.73;;;;;;;12.94;62.10;94750.44;4959863;28;20190;-87
2022/11/29 11:47:50;;;;;;;3.77;3.00;;;;;;;12.97;62.10;94755.28;4974207;28;20210;-82
2022/11/29 11:50:27;;;;;;;3.20;2.90;;;;;;;13.00;62.02;94764.44;4966067;28;20214;-83
2022/11/29 11:52:57;;;;;;;3.07;2.83;;;;;;;12.91;62.14;94749.91;4966307;28;20193;-83
2022/11/29 11:55:32;;;;;;;3.70;2.90;;;;;;;12.70;62.26;94720.28;4970143;28;21073;-84
2022/11/29 11:58:07;;;;;;;4.77;3.60;;;;;;;12.89;62.18;94756.97;4955080;28;20253;-83
2022/11/29 12:00:43;;;;;;;3.63;3.23;;;;;;;12.75;62.23;94740.38;4954341;28;20799;-81
2022/11/29 12:03:36;;;;;;;4.80;3.47;;;;;;;12.82;62.27;94759.31;4960581;28;20685;-84
2022/11/29 12:06:39;;;;;;;3.10;2.80;;;;;;;12.77;62.35;94756.41;4952072;28;20217;-83
2022/11/29 12:09:17;;;;;;;3.47;3.10;;;;;;;12.69;62.42;94749.44;4907248;29;20228;-89
2022/11/29 12:11:49;;;;;;;3.23;2.80;;;;;;;12.69;62.37;94749.44;4906508;29;20203;-86
2022/11/29 12:14:25;;;;;;;3.97;2.83;;;;;;;12.68;62.43;94754.72;4901155;29;20263;-85
2022/11/29 12:17:02;;;;;;;4.00;2.97;;;;;;;12.67;62.30;94750.56;4903189;29;20691;-84
2022/11/29 12:19:34;;;;;;;3.20;2.90;;;;;;;12.64;62.39;94754.22;4897221;29;20207;-83
2022/11/29 12:22:09;;;;;;;3.40;2.77;;;;;;;12.23;62.37;94689.78;4903604;29;20710;-88